createdAt,value
2022-10-03T04:02:38.944Z,2.33
2022-10-03T04:05:12.219Z,2.22
2022-10-03T04:07:49.235Z,2.60
2022-10-03T04:10:42.479Z,2.92
2022-10-03T04:13:42.987Z,2.33
2022-10-03T04:17:06.667Z,2.08
2022-10-03T04:22:45.557Z,3.80
2022-10-03T04:25:23.047Z,2.55
2022-10-03T04:28:01.645Z,2.05
2022-10-03T04:30:38.710Z,2.58
2022-10-03T04:33:27.007Z,1.77
2022-10-03T04:36:12.335Z,2.17
2022-10-03T04:39:01.795Z,1.73
2022-10-03T04:42:04.112Z,2.17
2022-10-03T04:44:31.549Z,2.90
2022-10-03T04:47:16.785Z,3.15
2022-10-03T04:50:03.330Z,2.35
2022-10-03T04:53:16.535Z,1.90
2022-10-03T04:55:52.350Z,2.88
2022-10-03T04:58:40.640Z,2.15
2022-10-03T05:01:21.597Z,2.08
2022-10-03T05:04:15.951Z,2.55
2022-10-03T05:07:07.314Z,2.05
2022-10-03T05:09:49.727Z,1.90
2022-10-03T05:12:38.612Z,2.97
2022-10-03T05:15:14.256Z,1.98
2022-10-03T05:17:46.844Z,3.03
2022-10-03T05:23:30.036Z,1.63
2022-10-03T05:26:45.377Z,3.70
2022-10-03T05:29:27.828Z,2.70
2022-10-03T05:32:00.771Z,1.77
2022-10-03T05:34:38.915Z,4.75
2022-10-03T05:37:45.283Z,3.35
2022-10-03T05:40:30.018Z,2.75
2022-10-03T05:43:21.245Z,2.25
2022-10-03T05:46:15.988Z,2.03
2022-10-03T05:49:05.834Z,1.80
2022-10-03T05:51:47.170Z,1.80
2022-10-03T05:54:40.526Z,2.08
2022-10-03T05:57:46.463Z,2.50
2022-10-03T06:00:35.146Z,2.40
2022-10-03T06:03:32.729Z,2.97
2022-10-03T06:06:20.753Z,2.17
2022-10-03T06:09:15.283Z,2.00
2022-10-03T06:12:03.522Z,1.85
2022-10-03T06:15:03.051Z,2.38
2022-10-03T06:18:09.410Z,2.55
2022-10-03T06:21:13.061Z,2.00
2022-10-03T06:24:17.857Z,1.77
2022-10-03T06:27:15.653Z,1.83
2022-10-03T06:30:05.817Z,2.17
2022-10-03T06:32:57.411Z,2.05
2022-10-03T06:36:02.697Z,2.35
2022-10-03T06:38:38.435Z,2.78
2022-10-03T06:41:11.317Z,3.05
2022-10-03T06:43:59.200Z,2.38
2022-10-03T06:46:51.019Z,2.22
2022-10-03T06:50:06.336Z,2.53
2022-10-03T06:52:47.554Z,2.30
2022-10-03T06:55:17.225Z,3.58
2022-10-03T06:58:27.275Z,4.10
2022-10-03T07:01:13.674Z,1.88
2022-10-03T07:04:12.253Z,2.38
2022-10-03T07:06:51.328Z,3.92
2022-10-03T07:09:37.198Z,2.55
2022-10-03T07:12:24.003Z,3.25
2022-10-03T07:14:53.003Z,1.70
2022-10-03T07:17:47.800Z,2.65
2022-10-03T07:20:32.418Z,2.45
2022-10-03T07:23:31.052Z,3.63
2022-10-03T07:26:37.190Z,3.05
2022-10-03T07:30:01.992Z,2.00
2022-10-03T07:32:47.204Z,2.78
2022-10-03T07:36:10.568Z,3.20
2022-10-03T07:39:10.408Z,3.95
2022-10-03T07:41:49.589Z,3.75
2022-10-03T07:44:27.745Z,2.35
2022-10-03T07:47:10.391Z,2.42
2022-10-03T07:49:50.800Z,3.20
2022-10-03T07:52:44.316Z,3.20
2022-10-03T07:55:29.130Z,2.65
2022-10-03T07:58:30.708Z,2.10
2022-10-03T08:01:16.051Z,2.55
2022-10-03T08:04:07.566Z,3.08
2022-10-03T08:06:52.018Z,2.85
2022-10-03T08:09:18.856Z,3.10
2022-10-03T08:12:24.225Z,3.17
2022-10-03T08:15:20.396Z,2.38
2022-10-03T08:18:03.861Z,2.10
2022-10-03T08:20:33.510Z,2.03
2022-10-03T08:23:07.809Z,2.17
2022-10-03T08:25:44.024Z,2.97
2022-10-03T08:28:32.984Z,2.25
2022-10-03T08:31:11.880Z,2.28
2022-10-03T08:33:41.963Z,3.08
2022-10-03T08:36:24.223Z,3.10
2022-10-03T08:39:11.692Z,3.58
2022-10-03T08:42:08.525Z,3.65
2022-10-03T08:44:53.933Z,2.42
2022-10-03T08:47:51.728Z,3.15
2022-10-03T08:50:37.162Z,2.42
2022-10-03T08:53:27.485Z,2.28
2022-10-03T08:56:19.314Z,1.92
2022-10-03T08:59:04.915Z,2.10
2022-10-03T09:01:50.263Z,2.17
2022-10-03T09:04:20.326Z,2.88
2022-10-03T09:07:17.880Z,2.80
2022-10-03T09:10:00.707Z,3.03
2022-10-03T09:12:31.773Z,1.73
2022-10-03T09:15:12.721Z,2.42
2022-10-03T09:17:55.770Z,1.70
2022-10-03T09:20:41.083Z,2.25
2022-10-03T09:23:32.531Z,1.92
2022-10-03T09:26:11.440Z,3.55
2022-10-03T09:29:19.179Z,2.00
2022-10-03T09:32:23.571Z,2.17
2022-10-03T09:35:22.945Z,2.65
2022-10-03T09:38:13.216Z,2.63
2022-10-03T09:41:01.674Z,2.80
2022-10-03T09:43:43.438Z,2.05
2022-10-03T09:46:25.359Z,3.00
2022-10-03T09:49:07.165Z,1.83
2022-10-03T09:51:42.569Z,2.22
2022-10-03T09:54:24.376Z,2.63
2022-10-03T09:57:17.552Z,3.30
2022-10-03T10:00:10.328Z,2.35
2022-10-03T10:02:48.695Z,2.85
2022-10-03T10:05:39.963Z,2.75
2022-10-03T10:08:09.440Z,2.55
2022-10-03T10:10:57.952Z,3.13
2022-10-03T10:14:08.280Z,2.05
2022-10-03T10:16:47.979Z,3.58
2022-10-03T10:19:40.298Z,2.85
2022-10-03T10:22:18.517Z,2.53
2022-10-03T10:24:48.564Z,2.53
2022-10-03T10:27:42.207Z,1.83
2022-10-03T10:30:37.096Z,1.90
2022-10-03T10:33:41.597Z,2.53
2022-10-03T10:36:46.132Z,2.00
2022-10-03T10:39:48.387Z,3.10
2022-10-03T10:42:46.189Z,1.77
2022-10-03T10:45:48.366Z,1.73
2022-10-03T10:48:45.743Z,2.17
2022-10-03T10:51:58.459Z,2.08
2022-10-03T10:55:04.668Z,1.58
2022-10-03T10:58:17.221Z,1.70
2022-10-03T11:01:24.235Z,2.10
2022-10-03T11:04:06.132Z,2.10
2022-10-03T11:07:12.941Z,2.22
2022-10-03T11:10:24.560Z,1.67
2022-10-03T11:13:35.540Z,1.88
2022-10-03T11:16:42.532Z,2.22
2022-10-03T11:19:44.805Z,2.22
2022-10-03T11:22:48.661Z,1.70
2022-10-03T11:25:34.089Z,1.52
2022-10-03T11:28:20.572Z,2.33
2022-10-03T11:31:10.854Z,1.45
2022-10-03T11:33:56.073Z,2.13
2022-10-03T11:37:00.690Z,2.20
2022-10-03T11:39:50.289Z,1.73
2022-10-03T11:42:33.358Z,1.90
2022-10-03T11:45:05.961Z,1.67
2022-10-03T11:47:57.716Z,1.58
2022-10-03T11:50:46.009Z,1.92
2022-10-03T11:53:29.428Z,1.58
2022-10-03T11:56:12.623Z,2.45
2022-10-03T11:58:55.897Z,1.85
2022-10-03T12:01:25.734Z,1.73
2022-10-03T12:04:13.271Z,1.80
2022-10-03T12:07:28.668Z,1.90
2022-10-03T12:10:21.160Z,1.65
2022-10-03T12:12:54.984Z,2.22
2022-10-03T12:15:39.274Z,1.77
2022-10-03T12:18:28.013Z,1.02
2022-10-03T12:20:57.480Z,1.60
2022-10-03T12:23:44.922Z,2.05
2022-10-03T12:26:18.232Z,1.73
2022-10-03T12:28:51.250Z,1.77
2022-10-03T12:31:20.862Z,2.05
2022-10-03T12:33:53.047Z,2.05
2022-10-03T12:36:40.552Z,1.77
2022-10-03T12:39:28.992Z,2.00
2022-10-03T12:42:35.018Z,1.83
2022-10-03T12:45:20.712Z,2.20
2022-10-03T12:47:59.311Z,3.05
2022-10-03T12:50:56.735Z,2.20
2022-10-03T12:53:46.953Z,2.20
2022-10-03T12:56:49.553Z,2.53
2022-10-03T12:59:31.930Z,2.63
2022-10-03T13:02:07.841Z,1.98
2022-10-03T13:05:09.372Z,2.10
2022-10-03T13:07:47.245Z,1.98
2022-10-03T13:10:44.436Z,2.03
2022-10-03T13:13:58.325Z,2.58
2022-10-03T13:16:30.624Z,2.35
2022-10-03T13:19:09.854Z,1.27
2022-10-03T13:22:19.801Z,2.15
2022-10-03T13:24:58.796Z,2.05
2022-10-03T13:27:42.907Z,1.98
2022-10-03T13:30:24.225Z,2.13
2022-10-03T13:33:15.600Z,1.85
2022-10-03T13:36:04.694Z,1.50
2022-10-03T13:38:59.972Z,1.63
2022-10-03T13:41:30.368Z,2.75
2022-10-03T13:44:15.091Z,1.63
2022-10-03T13:47:00.672Z,2.65
2022-10-03T13:49:35.045Z,1.80
2022-10-03T13:52:15.388Z,1.83
2022-10-03T13:55:17.967Z,1.83
2022-10-03T13:58:05.942Z,1.80
2022-10-03T14:00:44.159Z,1.63
2022-10-03T14:03:20.145Z,1.35
2022-10-03T14:06:10.911Z,2.08
2022-10-03T14:08:59.671Z,2.50
2022-10-03T14:12:00.950Z,1.52
2022-10-03T14:14:52.371Z,2.45
2022-10-03T14:18:02.156Z,1.63
2022-10-03T14:21:02.345Z,1.73
2022-10-03T14:23:45.279Z,2.20
2022-10-03T14:26:31.594Z,1.90
2022-10-03T14:29:12.419Z,1.42
2022-10-03T14:31:57.568Z,2.50
2022-10-03T14:34:27.353Z,2.42
2022-10-03T14:37:12.781Z,1.63
2022-10-03T14:39:58.882Z,1.67
2022-10-03T14:42:56.346Z,2.28
2022-10-03T14:45:33.708Z,2.13
2022-10-03T14:48:08.279Z,1.70
2022-10-03T14:50:40.503Z,1.50
2022-10-03T14:53:23.977Z,2.15
2022-10-03T14:56:03.033Z,1.73
2022-10-03T14:58:34.759Z,1.73
2022-10-03T15:01:23.924Z,1.67
2022-10-03T15:04:14.908Z,1.80
2022-10-03T15:06:44.670Z,1.27
2022-10-03T15:09:25.691Z,1.50
2022-10-03T15:12:22.485Z,2.00
2022-10-03T15:15:04.979Z,2.20
2022-10-03T15:17:53.832Z,1.52
2022-10-03T15:20:27.264Z,1.55
2022-10-03T15:22:58.433Z,1.85
2022-10-03T15:25:42.751Z,1.60
2022-10-03T15:28:15.655Z,1.88
2022-10-03T15:30:44.190Z,2.10
2022-10-03T15:33:14.001Z,2.83
2022-10-03T15:35:44.626Z,2.10
2022-10-03T15:38:25.083Z,1.95
2022-10-03T15:41:16.296Z,2.53
2022-10-03T15:43:55.066Z,1.80
2022-10-03T15:46:46.350Z,2.42
2022-10-03T15:49:26.622Z,1.40
2022-10-03T15:51:55.592Z,2.50
2022-10-03T15:54:26.272Z,1.65
2022-10-03T15:56:57.180Z,2.05
2022-10-03T15:59:37.972Z,2.75
2022-10-03T16:02:20.638Z,2.10
2022-10-03T16:04:52.370Z,2.42
2022-10-03T16:07:36.294Z,2.47
2022-10-03T16:10:34.905Z,2.00
2022-10-03T16:13:24.936Z,1.70
2022-10-03T16:16:16.416Z,2.30
2022-10-03T16:19:02.772Z,2.38
2022-10-03T16:21:42.553Z,2.10
2022-10-03T16:24:20.752Z,1.88
2022-10-03T16:26:55.410Z,1.98
2022-10-03T16:29:30.627Z,1.95
2022-10-03T16:32:14.212Z,2.08
2022-10-03T16:34:44.467Z,1.70
2022-10-03T16:37:20.511Z,1.73
2022-10-03T16:39:57.745Z,1.75
2022-10-03T16:42:28.934Z,2.00
2022-10-03T16:44:58.229Z,2.10
2022-10-03T16:47:36.419Z,1.98
2022-10-03T16:50:27.757Z,1.80
2022-10-03T16:52:59.029Z,2.65
2022-10-03T16:55:32.205Z,2.17
2022-10-03T16:58:22.045Z,1.67
2022-10-03T17:01:25.252Z,1.85
2022-10-03T17:04:10.937Z,2.13
2022-10-03T17:06:39.222Z,2.28
2022-10-03T17:09:18.094Z,2.20
2022-10-03T17:11:51.583Z,2.95
2022-10-03T17:14:20.567Z,2.80
2022-10-03T17:16:57.155Z,3.67
2022-10-03T17:19:44.433Z,2.88
2022-10-03T17:22:17.019Z,3.00
2022-10-03T17:24:53.950Z,2.97
2022-10-03T17:27:29.555Z,3.28
2022-10-03T17:30:05.141Z,2.38
2022-10-03T17:32:42.777Z,2.67
2022-10-03T17:35:17.540Z,2.05
2022-10-03T17:38:49.286Z,2.78
2022-10-03T17:41:22.760Z,3.33
2022-10-03T17:44:05.809Z,3.22
2022-10-03T17:46:45.885Z,2.20
2022-10-03T17:49:12.550Z,4.03
2022-10-03T17:51:44.880Z,4.85
2022-10-03T17:54:24.557Z,3.38
2022-10-03T17:57:05.967Z,3.15
2022-10-03T17:59:55.376Z,4.75
2022-10-03T18:02:35.478Z,4.50
2022-10-03T18:05:19.749Z,3.60
2022-10-03T18:07:49.392Z,2.83
2022-10-03T18:10:24.436Z,2.75
2022-10-03T18:12:54.179Z,2.42
2022-10-03T18:15:41.228Z,1.77
2022-10-03T18:18:20.109Z,2.25
2022-10-03T18:21:13.408Z,4.18
2022-10-03T18:23:55.897Z,2.50
2022-10-03T18:26:46.593Z,2.25
2022-10-03T18:29:19.064Z,3.20
2022-10-03T18:31:53.006Z,3.63
2022-10-03T18:34:34.548Z,2.97
2022-10-03T18:37:26.978Z,3.35
2022-10-03T18:39:56.169Z,3.38
2022-10-03T18:42:27.828Z,3.20
2022-10-03T18:44:57.392Z,2.35
2022-10-03T18:47:30.029Z,3.05
2022-10-03T18:52:49.596Z,4.00
2022-10-03T18:55:35.394Z,3.90
2022-10-03T18:58:27.905Z,2.25
2022-10-03T19:01:45.681Z,2.78
2022-10-03T19:04:21.425Z,2.28
2022-10-03T19:06:52.714Z,2.53
2022-10-03T19:09:25.984Z,2.22
2022-10-03T19:12:01.393Z,2.55
2022-10-03T19:14:54.218Z,2.78
2022-10-03T19:17:23.413Z,2.72
2022-10-03T19:19:58.803Z,2.58
2022-10-03T19:22:34.183Z,2.30
2022-10-03T19:25:04.194Z,3.35
2022-10-03T19:27:49.858Z,3.30
2022-10-03T19:30:21.982Z,3.20
2022-10-03T19:32:57.975Z,3.30
2022-10-03T19:35:25.712Z,2.88
2022-10-03T19:37:56.152Z,2.58
2022-10-03T19:40:32.883Z,3.63
2022-10-03T19:43:24.806Z,3.03
2022-10-03T19:46:09.932Z,2.65
2022-10-03T19:48:42.842Z,2.95
2022-10-03T19:51:25.362Z,2.95
2022-10-03T19:54:00.943Z,3.45
2022-10-03T19:56:32.680Z,2.47
2022-10-03T19:59:35.739Z,2.60
2022-10-03T20:02:05.648Z,2.85
2022-10-03T20:04:36.852Z,3.15
2022-10-03T20:07:17.937Z,2.33
2022-10-03T20:09:57.207Z,3.05
2022-10-03T20:12:28.817Z,3.92
2022-10-03T20:15:01.376Z,2.88
2022-10-03T20:20:02.388Z,2.90
2022-10-03T20:22:33.013Z,3.20
2022-10-03T20:25:00.864Z,3.45
2022-10-03T20:27:39.988Z,3.80
2022-10-03T20:30:41.985Z,5.43
2022-10-03T20:33:08.980Z,3.67
2022-10-03T20:35:41.520Z,3.60
2022-10-03T20:38:42.048Z,4.05
2022-10-03T20:41:38.720Z,3.80
2022-10-03T20:44:12.733Z,4.88
2022-10-03T20:46:51.069Z,4.57
2022-10-03T20:49:33.461Z,4.70
2022-10-03T20:52:03.599Z,3.42
2022-10-03T20:54:47.599Z,3.00
2022-10-03T20:57:27.149Z,3.15
2022-10-03T21:00:11.697Z,3.30
2022-10-03T21:02:41.572Z,3.15
2022-10-03T21:05:31.893Z,3.20
2022-10-03T21:08:05.810Z,3.60
2022-10-03T21:10:44.692Z,3.80
2022-10-03T21:13:52.879Z,3.33
2022-10-03T21:16:34.244Z,3.05
2022-10-03T21:19:13.336Z,3.92
2022-10-03T21:21:48.227Z,3.17
2022-10-03T21:24:24.812Z,3.28
2022-10-03T21:27:05.177Z,3.58
2022-10-03T21:29:34.724Z,2.70
2022-10-03T21:32:16.260Z,3.35
2022-10-03T21:34:42.996Z,4.22
2022-10-03T21:37:27.561Z,3.08
2022-10-03T21:40:24.256Z,4.53
2022-10-03T21:43:09.882Z,4.30
2022-10-03T21:46:02.434Z,3.70
2022-10-03T21:48:56.812Z,4.07
2022-10-03T21:51:26.714Z,3.95
2022-10-03T21:54:21.107Z,3.67
2022-10-03T21:57:22.149Z,3.72
2022-10-03T22:00:13.717Z,3.95
2022-10-03T22:02:46.535Z,4.18
2022-10-03T22:05:25.307Z,4.57
2022-10-03T22:07:52.118Z,4.45
2022-10-03T22:10:31.892Z,4.80
2022-10-03T22:13:05.427Z,5.10
2022-10-03T22:15:44.432Z,4.68
2022-10-03T22:18:16.501Z,5.45
2022-10-03T22:21:01.998Z,4.03
2022-10-03T22:24:05.093Z,4.70
2022-10-03T22:26:38.350Z,4.75
2022-10-03T22:30:00.304Z,4.05
2022-10-03T22:32:34.842Z,5.53
2022-10-03T22:35:11.085Z,6.78
2022-10-03T22:37:38.816Z,4.43
2022-10-03T22:40:06.473Z,4.93
2022-10-03T22:42:40.792Z,5.82
2022-10-03T22:45:10.299Z,4.22
2022-10-03T22:47:38.838Z,4.65
2022-10-03T22:50:14.949Z,4.05
2022-10-03T22:52:46.092Z,4.60
2022-10-03T22:55:16.323Z,5.13
2022-10-03T22:57:45.072Z,5.03
2022-10-03T23:00:21.729Z,3.95
2022-10-03T23:03:01.728Z,5.35
2022-10-03T23:05:42.345Z,4.78
2022-10-03T23:08:32.283Z,4.50
2022-10-03T23:14:50.954Z,4.65
2022-10-03T23:17:29.449Z,4.40
2022-10-03T23:20:09.535Z,5.05
2022-10-03T23:22:37.969Z,4.40
2022-10-03T23:25:19.700Z,3.80
2022-10-03T23:28:01.010Z,4.00
2022-10-03T23:30:33.656Z,3.75
2022-10-03T23:35:41.315Z,3.75
2022-10-03T23:38:36.167Z,4.35
2022-10-03T23:41:23.124Z,5.47
2022-10-03T23:43:55.803Z,4.93
2022-10-03T23:48:56.064Z,4.38
2022-10-03T23:51:32.944Z,4.45
2022-10-03T23:54:04.032Z,4.35
2022-10-03T23:56:44.425Z,4.07
2022-10-03T23:59:14.097Z,3.95
